sensor_id;sensor_type;location;lat;lon;timestamp;pressure;altitude;pressure_sealevel;temperature;humidity
7335;BME280;3708;42.632;23.378;2023-01-30T00:01:27;94488.28;;;0.89;62.19
7335;BME280;3708;42.632;23.378;2023-01-30T00:03:54;94488.38;;;0.52;62.74
7335;BME280;3708;42.632;23.378;2023-01-30T00:06:22;94486.09;;;0.55;62.94
7335;BME280;3708;42.632;23.378;2023-01-30T00:08:49;94485.44;;;0.75;62.59
7335;BME280;3708;42.632;23.378;2023-01-30T00:11:17;94476.59;;;1.48;60.95
7335;BME280;3708;42.632;23.378;2023-01-30T00:13:45;94480.81;;;0.87;62.25
7335;BME280;3708;42.632;23.378;2023-01-30T00:16:12;94483.47;;;1.02;62.01
7335;BME280;3708;42.632;23.378;2023-01-30T00:18:42;94478.06;;;1.19;61.28
7335;BME280;3708;42.632;23.378;2023-01-30T00:21:11;94492.41;;;0.28;63.19
7335;BME280;3708;42.632;23.378;2023-01-30T00:23:38;94481.25;;;0.64;62.79
7335;BME280;3708;42.632;23.378;2023-01-30T00:26:06;94486.88;;;1.18;62.19
7335;BME280;3708;42.632;23.378;2023-01-30T00:28:34;94485.06;;;0.51;62.79
7335;BME280;3708;42.632;23.378;2023-01-30T00:31:00;94481.34;;;0.84;62.92
7335;BME280;3708;42.632;23.378;2023-01-30T00:33:27;94492.09;;;0.24;63.78
7335;BME280;3708;42.632;23.378;2023-01-30T00:35:56;94477.47;;;0.35;64.47
7335;BME280;3708;42.632;23.378;2023-01-30T00:38:23;94483.50;;;0.50;63.31
7335;BME280;3708;42.632;23.378;2023-01-30T00:40:50;94482.34;;;0.31;64.00
7335;BME280;3708;42.632;23.378;2023-01-30T00:43:18;94482.44;;;0.46;64.44
7335;BME280;3708;42.632;23.378;2023-01-30T00:46:07;94472.28;;;0.25;64.67
7335;BME280;3708;42.632;23.378;2023-01-30T00:48:53;94472.91;;;0.52;64.05
7335;BME280;3708;42.632;23.378;2023-01-30T00:51:21;94463.16;;;0.54;64.59
7335;BME280;3708;42.632;23.378;2023-01-30T00:53:48;94463.53;;;0.26;65.76
7335;BME280;3708;42.632;23.378;2023-01-30T00:56:15;94457.63;;;0.35;64.39
7335;BME280;3708;42.632;23.378;2023-01-30T00:58:42;94457.09;;;0.28;63.87
7335;BME280;3708;42.632;23.378;2023-01-30T01:01:08;94463.09;;;0.39;64.26
7335;BME280;3708;42.632;23.378;2023-01-30T01:03:35;94462.00;;;0.92;63.15
7335;BME280;3708;42.632;23.378;2023-01-30T01:06:02;94469.81;;;0.50;64.30
7335;BME280;3708;42.632;23.378;2023-01-30T01:08:31;94470.81;;;0.39;64.19
7335;BME280;3708;42.632;23.378;2023-01-30T01:10:57;94457.59;;;0.25;65.29
7335;BME280;3708;42.632;23.378;2023-01-30T01:13:24;94466.41;;;0.39;64.05
7335;BME280;3708;42.632;23.378;2023-01-30T01:15:51;94467.28;;;0.13;63.89
7335;BME280;3708;42.632;23.378;2023-01-30T01:18:18;94457.50;;;0.15;64.26
7335;BME280;3708;42.632;23.378;2023-01-30T01:20:45;94456.22;;;0.59;64.51
7335;BME280;3708;42.632;23.378;2023-01-30T01:23:12;94448.25;;;0.66;63.93
7335;BME280;3708;42.632;23.378;2023-01-30T01:25:40;94434.94;;;0.27;64.28
7335;BME280;3708;42.632;23.378;2023-01-30T01:28:07;94459.09;;;0.16;64.05
7335;BME280;3708;42.632;23.378;2023-01-30T01:30:33;94452.44;;;0.30;63.51
7335;BME280;3708;42.632;23.378;2023-01-30T01:33:00;94442.56;;;0.59;63.76
7335;BME280;3708;42.632;23.378;2023-01-30T01:35:27;94452.78;;;0.39;64.36
7335;BME280;3708;42.632;23.378;2023-01-30T01:37:54;94445.41;;;0.67;62.96
7335;BME280;3708;42.632;23.378;2023-01-30T01:40:22;94447.31;;;0.92;62.84
7335;BME280;3708;42.632;23.378;2023-01-30T01:43:15;94441.00;;;0.11;64.06
7335;BME280;3708;42.632;23.378;2023-01-30T01:45:43;94440.13;;;0.37;64.25
7335;BME280;3708;42.632;23.378;2023-01-30T01:48:15;94444.38;;;0.63;63.90
7335;BME280;3708;42.632;23.378;2023-01-30T01:50:47;94454.88;;;0.00;64.36
7335;BME280;3708;42.632;23.378;2023-01-30T01:53:17;94446.81;;;0.33;64.44
7335;BME280;3708;42.632;23.378;2023-01-30T01:55:48;94446.78;;;0.85;62.25
7335;BME280;3708;42.632;23.378;2023-01-30T01:58:22;94449.34;;;0.85;61.72
7335;BME280;3708;42.632;23.378;2023-01-30T02:00:51;94436.19;;;0.82;62.10
7335;BME280;3708;42.632;23.378;2023-01-30T02:03:20;94446.09;;;0.48;63.23
7335;BME280;3708;42.632;23.378;2023-01-30T02:05:51;94441.66;;;0.33;63.86
7335;BME280;3708;42.632;23.378;2023-01-30T02:08:21;94440.88;;;0.33;63.59
7335;BME280;3708;42.632;23.378;2023-01-30T02:10:53;94450.28;;;0.54;63.69
7335;BME280;3708;42.632;23.378;2023-01-30T02:13:25;94450.97;;;1.01;62.44
7335;BME280;3708;42.632;23.378;2023-01-30T02:15:54;94448.69;;;1.20;60.90
7335;BME280;3708;42.632;23.378;2023-01-30T02:18:23;94443.81;;;0.56;63.25
7335;BME280;3708;42.632;23.378;2023-01-30T02:21:05;94452.59;;;0.60;62.05
7335;BME280;3708;42.632;23.378;2023-01-30T02:23:55;94437.06;;;0.40;63.08
7335;BME280;3708;42.632;23.378;2023-01-30T02:26:44;94442.78;;;0.52;63.53
7335;BME280;3708;42.632;23.378;2023-01-30T02:29:38;94446.72;;;0.18;63.38
7335;BME280;3708;42.632;23.378;2023-01-30T02:32:20;94443.75;;;0.41;62.88
7335;BME280;3708;42.632;23.378;2023-01-30T02:34:58;94441.88;;;0.27;63.54
7335;BME280;3708;42.632;23.378;2023-01-30T02:37:39;94446.88;;;0.48;62.39
7335;BME280;3708;42.632;23.378;2023-01-30T02:40:22;94442.06;;;0.62;62.70
7335;BME280;3708;42.632;23.378;2023-01-30T02:43:03;94441.22;;;0.05;63.75
7335;BME280;3708;42.632;23.378;2023-01-30T02:45:37;94430.00;;;0.77;62.30
7335;BME280;3708;42.632;23.378;2023-01-30T02:48:12;94432.31;;;0.79;62.51
7335;BME280;3708;42.632;23.378;2023-01-30T02:50:44;94435.72;;;1.00;61.66
7335;BME280;3708;42.632;23.378;2023-01-30T02:53:12;94433.09;;;0.80;61.17
7335;BME280;3708;42.632;23.378;2023-01-30T02:55:39;94424.28;;;0.65;62.86
7335;BME280;3708;42.632;23.378;2023-01-30T02:58:07;94431.09;;;1.07;60.63
7335;BME280;3708;42.632;23.378;2023-01-30T03:00:52;94421.16;;;0.53;62.34
7335;BME280;3708;42.632;23.378;2023-01-30T03:03:44;94438.44;;;0.11;63.38
7335;BME280;3708;42.632;23.378;2023-01-30T03:06:29;94434.16;;;0.27;62.95
7335;BME280;3708;42.632;23.378;2023-01-30T03:09:06;94442.44;;;0.96;61.92
7335;BME280;3708;42.632;23.378;2023-01-30T03:11:43;94434.44;;;0.92;60.56
7335;BME280;3708;42.632;23.378;2023-01-30T03:14:18;94417.97;;;0.41;62.13
7335;BME280;3708;42.632;23.378;2023-01-30T03:16:49;94423.84;;;0.27;62.83
7335;BME280;3708;42.632;23.378;2023-01-30T03:19:20;94438.91;;;0.03;63.14
7335;BME280;3708;42.632;23.378;2023-01-30T03:21:47;94421.34;;;-0.42;64.53
7335;BME280;3708;42.632;23.378;2023-01-30T03:24:14;94421.03;;;-0.14;63.27
7335;BME280;3708;42.632;23.378;2023-01-30T03:26:44;94402.47;;;0.26;62.08
7335;BME280;3708;42.632;23.378;2023-01-30T03:29:12;94415.94;;;0.43;62.27
7335;BME280;3708;42.632;23.378;2023-01-30T03:31:39;94409.03;;;0.59;60.71
7335;BME280;3708;42.632;23.378;2023-01-30T03:34:06;94400.78;;;0.57;60.67
7335;BME280;3708;42.632;23.378;2023-01-30T03:36:34;94396.97;;;0.69;60.37
7335;BME280;3708;42.632;23.378;2023-01-30T03:39:01;94400.09;;;0.20;61.99
7335;BME280;3708;42.632;23.378;2023-01-30T03:41:28;94396.34;;;0.42;61.48
7335;BME280;3708;42.632;23.378;2023-01-30T03:43:55;94396.44;;;0.62;61.31
7335;BME280;3708;42.632;23.378;2023-01-30T03:46:22;94392.75;;;0.43;61.86
7335;BME280;3708;42.632;23.378;2023-01-30T03:48:49;94405.03;;;0.88;60.71
7335;BME280;3708;42.632;23.378;2023-01-30T03:51:16;94389.97;;;0.60;61.04
7335;BME280;3708;42.632;23.378;2023-01-30T03:53:44;94396.78;;;0.19;62.09
7335;BME280;3708;42.632;23.378;2023-01-30T03:56:11;94409.63;;;0.14;62.93
7335;BME280;3708;42.632;23.378;2023-01-30T03:58:38;94393.78;;;0.42;61.04
7335;BME280;3708;42.632;23.378;2023-01-30T04:01:04;94392.31;;;0.05;62.49
7335;BME280;3708;42.632;23.378;2023-01-30T04:03:33;94387.88;;;0.52;61.95
7335;BME280;3708;42.632;23.378;2023-01-30T04:06:00;94384.59;;;0.66;61.45
7335;BME280;3708;42.632;23.378;2023-01-30T04:08:26;94384.50;;;0.41;61.90
7335;BME280;3708;42.632;23.378;2023-01-30T04:10:55;94387.66;;;0.02;62.99
7335;BME280;3708;42.632;23.378;2023-01-30T04:13:22;94386.38;;;-0.38;64.77
7335;BME280;3708;42.632;23.378;2023-01-30T04:15:48;94385.00;;;-0.09;64.35
7335;BME280;3708;42.632;23.378;2023-01-30T04:18:15;94384.22;;;0.38;63.15
7335;BME280;3708;42.632;23.378;2023-01-30T04:20:42;94386.69;;;0.80;61.72
7335;BME280;3708;42.632;23.378;2023-01-30T04:23:09;94386.41;;;0.66;62.47
7335;BME280;3708;42.632;23.378;2023-01-30T04:25:36;94393.88;;;0.62;62.29
7335;BME280;3708;42.632;23.378;2023-01-30T04:28:04;94389.06;;;-0.59;65.65
7335;BME280;3708;42.632;23.378;2023-01-30T04:30:31;94390.84;;;-0.28;64.49
7335;BME280;3708;42.632;23.378;2023-01-30T04:32:57;94397.47;;;-0.37;64.76
7335;BME280;3708;42.632;23.378;2023-01-30T04:35:24;94391.91;;;-0.19;64.45
7335;BME280;3708;42.632;23.378;2023-01-30T04:37:51;94388.97;;;0.04;64.27
7335;BME280;3708;42.632;23.378;2023-01-30T04:40:18;94382.34;;;0.90;69.91
7335;BME280;3708;42.632;23.378;2023-01-30T04:42:46;94385.31;;;0.47;63.99
7335;BME280;3708;42.632;23.378;2023-01-30T04:45:14;94392.28;;;0.56;63.36
7335;BME280;3708;42.632;23.378;2023-01-30T04:47:41;94387.00;;;-0.21;64.29
7335;BME280;3708;42.632;23.378;2023-01-30T04:50:09;94375.78;;;-0.05;64.04
7335;BME280;3708;42.632;23.378;2023-01-30T04:52:36;94380.75;;;0.12;63.91
7335;BME280;3708;42.632;23.378;2023-01-30T04:55:03;94373.72;;;0.54;63.75
7335;BME280;3708;42.632;23.378;2023-01-30T04:57:30;94369.03;;;0.36;63.50
7335;BME280;3708;42.632;23.378;2023-01-30T04:59:57;94368.44;;;0.19;63.81
7335;BME280;3708;42.632;23.378;2023-01-30T05:02:25;94372.28;;;0.17;63.19
7335;BME280;3708;42.632;23.378;2023-01-30T05:04:52;94364.19;;;-0.02;65.46
7335;BME280;3708;42.632;23.378;2023-01-30T05:07:19;94361.13;;;0.01;65.83
7335;BME280;3708;42.632;23.378;2023-01-30T05:09:47;94373.13;;;-0.20;65.65
7335;BME280;3708;42.632;23.378;2023-01-30T05:12:14;94374.81;;;-0.35;65.91
7335;BME280;3708;42.632;23.378;2023-01-30T05:14:42;94365.94;;;0.34;64.18
7335;BME280;3708;42.632;23.378;2023-01-30T05:17:10;94364.50;;;0.68;63.52
7335;BME280;3708;42.632;23.378;2023-01-30T05:19:39;94371.66;;;0.51;64.56
7335;BME280;3708;42.632;23.378;2023-01-30T05:22:07;94376.25;;;0.44;63.74
7335;BME280;3708;42.632;23.378;2023-01-30T05:24:34;94376.47;;;0.28;64.38
7335;BME280;3708;42.632;23.378;2023-01-30T05:27:01;94382.84;;;0.20;64.88
7335;BME280;3708;42.632;23.378;2023-01-30T05:29:28;94377.63;;;0.62;63.84
7335;BME280;3708;42.632;23.378;2023-01-30T05:31:55;94384.56;;;-0.01;65.48
7335;BME280;3708;42.632;23.378;2023-01-30T05:34:21;94376.28;;;-0.08;66.50
7335;BME280;3708;42.632;23.378;2023-01-30T05:36:50;94372.91;;;0.44;64.32
7335;BME280;3708;42.632;23.378;2023-01-30T05:39:17;94370.16;;;0.70;63.68
7335;BME280;3708;42.632;23.378;2023-01-30T05:41:44;94378.22;;;0.22;65.15
7335;BME280;3708;42.632;23.378;2023-01-30T05:44:11;94366.78;;;0.60;63.79
7335;BME280;3708;42.632;23.378;2023-01-30T05:46:38;94373.00;;;0.07;65.29
7335;BME280;3708;42.632;23.378;2023-01-30T05:49:05;94369.50;;;0.23;65.83
7335;BME280;3708;42.632;23.378;2023-01-30T05:51:32;94364.78;;;0.15;65.56
7335;BME280;3708;42.632;23.378;2023-01-30T05:54:00;94376.50;;;-0.14;66.57
7335;BME280;3708;42.632;23.378;2023-01-30T05:56:27;94383.75;;;0.46;65.95
7335;BME280;3708;42.632;23.378;2023-01-30T05:58:58;94384.66;;;0.20;65.23
7335;BME280;3708;42.632;23.378;2023-01-30T06:01:26;94382.81;;;0.10;66.52
7335;BME280;3708;42.632;23.378;2023-01-30T06:03:55;94374.19;;;0.41;66.07
7335;BME280;3708;42.632;23.378;2023-01-30T06:06:22;94381.00;;;0.06;66.88
7335;BME280;3708;42.632;23.378;2023-01-30T06:08:51;94389.47;;;-0.36;67.38
7335;BME280;3708;42.632;23.378;2023-01-30T06:11:22;94389.19;;;-0.03;67.14
7335;BME280;3708;42.632;23.378;2023-01-30T06:13:58;94376.97;;;-0.17;66.97
7335;BME280;3708;42.632;23.378;2023-01-30T06:16:25;94383.75;;;-0.11;66.57
7335;BME280;3708;42.632;23.378;2023-01-30T06:18:56;94372.72;;;-0.43;67.29
7335;BME280;3708;42.632;23.378;2023-01-30T06:21:27;94374.22;;;-0.06;67.06
7335;BME280;3708;42.632;23.378;2023-01-30T06:23:55;94369.81;;;-0.15;67.32
7335;BME280;3708;42.632;23.378;2023-01-30T06:26:25;94373.59;;;0.24;66.65
7335;BME280;3708;42.632;23.378;2023-01-30T06:28:52;94356.56;;;0.18;65.74
7335;BME280;3708;42.632;23.378;2023-01-30T06:31:19;94362.22;;;0.10;65.80
7335;BME280;3708;42.632;23.378;2023-01-30T06:34:02;94359.16;;;0.18;66.28
7335;BME280;3708;42.632;23.378;2023-01-30T06:36:35;94367.22;;;-0.57;67.15
7335;BME280;3708;42.632;23.378;2023-01-30T06:39:07;94372.19;;;-0.04;67.24
7335;BME280;3708;42.632;23.378;2023-01-30T06:41:35;94373.06;;;0.22;66.00
7335;BME280;3708;42.632;23.378;2023-01-30T06:44:02;94381.94;;;-0.06;66.36
7335;BME280;3708;42.632;23.378;2023-01-30T06:46:30;94372.66;;;0.40;65.36
7335;BME280;3708;42.632;23.378;2023-01-30T06:48:57;94375.06;;;0.05;65.43
7335;BME280;3708;42.632;23.378;2023-01-30T06:51:26;94376.44;;;0.23;65.63
7335;BME280;3708;42.632;23.378;2023-01-30T06:54:03;94383.13;;;0.19;65.82
7335;BME280;3708;42.632;23.378;2023-01-30T06:56:30;94389.44;;;0.53;65.02
7335;BME280;3708;42.632;23.378;2023-01-30T06:58:59;94381.38;;;0.39;63.57
7335;BME280;3708;42.632;23.378;2023-01-30T07:01:26;94391.53;;;0.61;64.23
7335;BME280;3708;42.632;23.378;2023-01-30T07:03:53;94397.75;;;0.13;65.27
7335;BME280;3708;42.632;23.378;2023-01-30T07:06:20;94393.28;;;-0.07;64.87
7335;BME280;3708;42.632;23.378;2023-01-30T07:08:55;94390.47;;;-0.05;65.75
7335;BME280;3708;42.632;23.378;2023-01-30T07:11:40;94391.97;;;-0.09;66.25
7335;BME280;3708;42.632;23.378;2023-01-30T07:14:09;94398.75;;;0.07;66.22
7335;BME280;3708;42.632;23.378;2023-01-30T07:16:36;94403.19;;;0.17;66.34
7335;BME280;3708;42.632;23.378;2023-01-30T07:19:03;94392.34;;;0.10;65.63
7335;BME280;3708;42.632;23.378;2023-01-30T07:21:31;94388.97;;;0.09;65.11
7335;BME280;3708;42.632;23.378;2023-01-30T07:23:58;94400.41;;;0.23;65.19
7335;BME280;3708;42.632;23.378;2023-01-30T07:26:25;94404.06;;;-0.10;66.09
7335;BME280;3708;42.632;23.378;2023-01-30T07:28:54;94398.84;;;0.22;65.82
7335;BME280;3708;42.632;23.378;2023-01-30T07:31:22;94405.53;;;0.90;63.43
7335;BME280;3708;42.632;23.378;2023-01-30T07:33:49;94412.03;;;0.36;64.31
7335;BME280;3708;42.632;23.378;2023-01-30T07:36:17;94418.97;;;0.30;65.33
7335;BME280;3708;42.632;23.378;2023-01-30T07:38:44;94409.72;;;0.34;64.69
7335;BME280;3708;42.632;23.378;2023-01-30T07:41:10;94420.69;;;-0.27;65.60
7335;BME280;3708;42.632;23.378;2023-01-30T07:43:37;94418.50;;;0.38;65.49
7335;BME280;3708;42.632;23.378;2023-01-30T07:46:04;94414.22;;;0.07;65.21
7335;BME280;3708;42.632;23.378;2023-01-30T07:48:33;94423.88;;;1.04;63.79
7335;BME280;3708;42.632;23.378;2023-01-30T07:51:00;94420.69;;;0.66;63.06
7335;BME280;3708;42.632;23.378;2023-01-30T07:53:30;94417.22;;;0.46;63.14
7335;BME280;3708;42.632;23.378;2023-01-30T07:55:57;94409.53;;;0.51;63.90
7335;BME280;3708;42.632;23.378;2023-01-30T07:58:25;94398.06;;;1.04;62.54
7335;BME280;3708;42.632;23.378;2023-01-30T08:00:58;94394.94;;;0.20;63.75
7335;BME280;3708;42.632;23.378;2023-01-30T08:03:37;94391.75;;;0.54;63.35
7335;BME280;3708;42.632;23.378;2023-01-30T08:06:05;94390.41;;;-0.10;64.46
7335;BME280;3708;42.632;23.378;2023-01-30T08:08:32;94387.19;;;0.76;63.13
7335;BME280;3708;42.632;23.378;2023-01-30T08:11:00;94372.63;;;0.35;62.78
7335;BME280;3708;42.632;23.378;2023-01-30T08:13:26;94375.94;;;0.26;63.94
7335;BME280;3708;42.632;23.378;2023-01-30T08:15:53;94378.34;;;0.47;62.72
7335;BME280;3708;42.632;23.378;2023-01-30T08:18:23;94385.13;;;0.68;62.17
7335;BME280;3708;42.632;23.378;2023-01-30T08:20:55;94382.06;;;1.02;62.18
7335;BME280;3708;42.632;23.378;2023-01-30T08:23:23;94378.53;;;1.38;60.79
7335;BME280;3708;42.632;23.378;2023-01-30T08:25:53;94383.63;;;0.98;60.75
7335;BME280;3708;42.632;23.378;2023-01-30T08:28:20;94374.94;;;0.32;63.83
7335;BME280;3708;42.632;23.378;2023-01-30T08:30:47;94372.66;;;0.40;63.77
7335;BME280;3708;42.632;23.378;2023-01-30T08:33:14;94384.13;;;0.90;61.84
7335;BME280;3708;42.632;23.378;2023-01-30T08:35:41;94382.31;;;0.95;62.37
7335;BME280;3708;42.632;23.378;2023-01-30T08:38:10;94367.66;;;1.26;60.79
7335;BME280;3708;42.632;23.378;2023-01-30T08:40:37;94371.78;;;0.97;59.55
7335;BME280;3708;42.632;23.378;2023-01-30T08:43:05;94370.00;;;1.22;60.54
7335;BME280;3708;42.632;23.378;2023-01-30T08:45:32;94359.91;;;1.56;59.13
7335;BME280;3708;42.632;23.378;2023-01-30T08:48:00;94351.91;;;1.83;58.72
7335;BME280;3708;42.632;23.378;2023-01-30T08:50:35;94355.00;;;1.65;58.93
7335;BME280;3708;42.632;23.378;2023-01-30T08:53:13;94355.22;;;1.88;57.53
7335;BME280;3708;42.632;23.378;2023-01-30T08:55:52;94358.59;;;0.83;59.46
7335;BME280;3708;42.632;23.378;2023-01-30T08:58:20;94353.63;;;0.61;60.57
7335;BME280;3708;42.632;23.378;2023-01-30T09:00:48;94349.63;;;1.16;59.73
7335;BME280;3708;42.632;23.378;2023-01-30T09:03:16;94351.66;;;1.54;57.22
7335;BME280;3708;42.632;23.378;2023-01-30T09:05:43;94337.88;;;2.04;56.84
7335;BME280;3708;42.632;23.378;2023-01-30T09:08:10;94338.25;;;1.42;57.49
7335;BME280;3708;42.632;23.378;2023-01-30T09:10:39;94332.31;;;1.01;57.41
7335;BME280;3708;42.632;23.378;2023-01-30T09:13:08;94339.00;;;0.92;59.15
7335;BME280;3708;42.632;23.378;2023-01-30T09:15:35;94335.16;;;1.20;57.95
7335;BME280;3708;42.632;23.378;2023-01-30T09:18:05;94326.38;;;1.01;57.48
7335;BME280;3708;42.632;23.378;2023-01-30T09:20:32;94329.22;;;1.49;56.29
7335;BME280;3708;42.632;23.378;2023-01-30T09:23:00;94320.19;;;1.57;56.17
7335;BME280;3708;42.632;23.378;2023-01-30T09:25:27;94326.38;;;1.01;57.50
7335;BME280;3708;42.632;23.378;2023-01-30T09:27:57;94328.47;;;1.29;56.80
7335;BME280;3708;42.632;23.378;2023-01-30T09:30:24;94328.69;;;1.32;56.67
7335;BME280;3708;42.632;23.378;2023-01-30T09:32:51;94339.00;;;1.12;57.10
7335;BME280;3708;42.632;23.378;2023-01-30T09:35:18;94336.44;;;1.47;56.88
7335;BME280;3708;42.632;23.378;2023-01-30T09:37:48;94336.69;;;1.41;55.69
7335;BME280;3708;42.632;23.378;2023-01-30T09:40:17;94334.59;;;1.73;56.63
7335;BME280;3708;42.632;23.378;2023-01-30T09:43:17;94316.06;;;1.31;57.09
7335;BME280;3708;42.632;23.378;2023-01-30T09:46:03;94319.16;;;1.53;57.67
7335;BME280;3708;42.632;23.378;2023-01-30T09:48:37;94318.00;;;1.94;56.96
7335;BME280;3708;42.632;23.378;2023-01-30T09:51:21;94303.38;;;2.44;56.43
7335;BME280;3708;42.632;23.378;2023-01-30T09:54:02;94292.19;;;1.99;57.03
7335;BME280;3708;42.632;23.378;2023-01-30T09:56:36;94301.38;;;2.30;56.90
7335;BME280;3708;42.632;23.378;2023-01-30T09:59:05;94298.16;;;2.54;56.02
7335;BME280;3708;42.632;23.378;2023-01-30T10:01:36;94298.50;;;1.53;58.61
7335;BME280;3708;42.632;23.378;2023-01-30T10:04:12;94290.88;;;2.56;57.30
7335;BME280;3708;42.632;23.378;2023-01-30T10:06:50;94294.38;;;1.37;58.12
7335;BME280;3708;42.632;23.378;2023-01-30T10:09:32;94283.66;;;1.99;58.04
7335;BME280;3708;42.632;23.378;2023-01-30T10:12:17;94278.25;;;2.49;57.18
7335;BME280;3708;42.632;23.378;2023-01-30T10:15:28;94275.38;;;2.02;57.73
7335;BME280;3708;42.632;23.378;2023-01-30T10:21:11;94260.44;;;1.84;58.24
7335;BME280;3708;42.632;23.378;2023-01-30T10:23:52;94253.84;;;1.47;59.73
7335;BME280;3708;42.632;23.378;2023-01-30T10:26:25;94262.94;;;0.80;61.46
7335;BME280;3708;42.632;23.378;2023-01-30T10:28:58;94248.22;;;1.00;60.97
7335;BME280;3708;42.632;23.378;2023-01-30T10:31:32;94246.16;;;1.07;61.08
7335;BME280;3708;42.632;23.378;2023-01-30T10:34:03;94240.72;;;0.58;61.26
7335;BME280;3708;42.632;23.378;2023-01-30T10:36:55;94239.47;;;0.71;61.48
7335;BME280;3708;42.632;23.378;2023-01-30T10:39:28;94232.72;;;0.40;62.39
7335;BME280;3708;42.632;23.378;2023-01-30T10:42:06;94226.78;;;0.39;62.98
7335;BME280;3708;42.632;23.378;2023-01-30T10:44:35;94220.88;;;0.44;62.67
7335;BME280;3708;42.632;23.378;2023-01-30T10:47:36;94219.09;;;0.90;60.94
7335;BME280;3708;42.632;23.378;2023-01-30T10:50:13;94210.28;;;1.06;60.31
7335;BME280;3708;42.632;23.378;2023-01-30T10:52:49;94204.19;;;1.71;58.71
7335;BME280;3708;42.632;23.378;2023-01-30T10:55:29;94203.06;;;1.13;59.03
7335;BME280;3708;42.632;23.378;2023-01-30T10:58:07;94181.97;;;0.50;60.98
7335;BME280;3708;42.632;23.378;2023-01-30T11:00:57;94183.22;;;1.18;59.75
7335;BME280;3708;42.632;23.378;2023-01-30T11:03:34;94176.97;;;1.44;58.45
7335;BME280;3708;42.632;23.378;2023-01-30T11:06:06;94172.69;;;0.95;59.20
7335;BME280;3708;42.632;23.378;2023-01-30T11:08:40;94164.88;;;1.20;58.16
7335;BME280;3708;42.632;23.378;2023-01-30T11:11:30;94157.94;;;1.20;59.43
7335;BME280;3708;42.632;23.378;2023-01-30T11:14:12;94151.47;;;1.13;59.29
7335;BME280;3708;42.632;23.378;2023-01-30T11:16:46;94153.50;;;1.26;58.61
7335;BME280;3708;42.632;23.378;2023-01-30T11:19:20;94144.84;;;0.76;59.49
7335;BME280;3708;42.632;23.378;2023-01-30T11:21:49;94138.94;;;0.66;60.56
7335;BME280;3708;42.632;23.378;2023-01-30T11:24:19;94141.00;;;1.58;58.64
7335;BME280;3708;42.632;23.378;2023-01-30T11:26:46;94131.41;;;2.12;56.36
7335;BME280;3708;42.632;23.378;2023-01-30T11:29:16;94126.19;;;1.25;57.03
7335;BME280;3708;42.632;23.378;2023-01-30T11:31:50;94124.75;;;0.73;59.61
7335;BME280;3708;42.632;23.378;2023-01-30T11:34:21;94118.91;;;1.32;59.13
7335;BME280;3708;42.632;23.378;2023-01-30T11:36:50;94117.75;;;1.63;56.72
7335;BME280;3708;42.632;23.378;2023-01-30T11:39:20;94120.78;;;1.75;57.15
7335;BME280;3708;42.632;23.378;2023-01-30T11:41:57;94114.75;;;1.46;57.03
7335;BME280;3708;42.632;23.378;2023-01-30T11:44:34;94108.59;;;2.24;55.54
7335;BME280;3708;42.632;23.378;2023-01-30T11:47:03;94104.03;;;2.11;55.40
7335;BME280;3708;42.632;23.378;2023-01-30T11:49:37;94094.34;;;1.93;56.42
7335;BME280;3708;42.632;23.378;2023-01-30T11:52:09;94080.34;;;2.04;55.50
7335;BME280;3708;42.632;23.378;2023-01-30T11:54:38;94073.19;;;2.25;55.00
7335;BME280;3708;42.632;23.378;2023-01-30T11:57:10;94070.28;;;1.59;56.28
7335;BME280;3708;42.632;23.378;2023-01-30T11:59:42;94073.69;;;2.27;55.72
7335;BME280;3708;42.632;23.378;2023-01-30T12:02:17;94064.53;;;1.72;57.13
7335;BME280;3708;42.632;23.378;2023-01-30T12:04:53;94063.31;;;2.32;55.52
7335;BME280;3708;42.632;23.378;2023-01-30T12:07:22;94053.00;;;1.60;56.64
7335;BME280;3708;42.632;23.378;2023-01-30T12:09:50;94045.28;;;1.01;58.73
7335;BME280;3708;42.632;23.378;2023-01-30T12:12:29;94037.44;;;1.70;57.31
7335;BME280;3708;42.632;23.378;2023-01-30T12:15:04;94039.72;;;1.32;57.67
7335;BME280;3708;42.632;23.378;2023-01-30T12:17:43;94027.03;;;1.80;56.43
7335;BME280;3708;42.632;23.378;2023-01-30T12:20:20;94036.28;;;2.48;55.90
7335;BME280;3708;42.632;23.378;2023-01-30T12:22:57;94030.81;;;1.92;55.86
7335;BME280;3708;42.632;23.378;2023-01-30T12:25:31;94026.91;;;2.28;55.22
7335;BME280;3708;42.632;23.378;2023-01-30T12:28:02;94023.81;;;2.79;54.28
7335;BME280;3708;42.632;23.378;2023-01-30T12:30:37;94022.44;;;2.05;55.21
7335;BME280;3708;42.632;23.378;2023-01-30T12:33:11;94020.78;;;2.72;54.89
7335;BME280;3708;42.632;23.378;2023-01-30T12:35:56;94008.69;;;3.15;53.28
7335;BME280;3708;42.632;23.378;2023-01-30T12:38:45;94007.81;;;3.00;53.04
7335;BME280;3708;42.632;23.378;2023-01-30T12:41:29;94014.78;;;3.00;52.12
7335;BME280;3708;42.632;23.378;2023-01-30T12:44:14;94010.34;;;2.82;52.12
7335;BME280;3708;42.632;23.378;2023-01-30T12:47:01;94002.47;;;2.92;53.08
7335;BME280;3708;42.632;23.378;2023-01-30T12:49:48;93990.13;;;3.26;52.07
7335;BME280;3708;42.632;23.378;2023-01-30T12:52:47;93988.06;;;3.65;51.42
7335;BME280;3708;42.632;23.378;2023-01-30T12:55:32;93982.88;;;2.86;51.25
7335;BME280;3708;42.632;23.378;2023-01-30T12:58:06;93980.28;;;3.09;49.88
7335;BME280;3708;42.632;23.378;2023-01-30T13:00:54;93971.53;;;2.11;50.42
7335;BME280;3708;42.632;23.378;2023-01-30T13:03:32;93982.72;;;1.68;51.32
7335;BME280;3708;42.632;23.378;2023-01-30T13:06:10;93982.81;;;1.14;51.66
7335;BME280;3708;42.632;23.378;2023-01-30T13:08:57;93981.94;;;1.28;51.66
7335;BME280;3708;42.632;23.378;2023-01-30T13:11:49;93974.88;;;0.95;52.78
7335;BME280;3708;42.632;23.378;2023-01-30T13:14:24;93967.16;;;1.39;52.88
7335;BME280;3708;42.632;23.378;2023-01-30T13:17:03;93959.94;;;1.36;52.98
7335;BME280;3708;42.632;23.378;2023-01-30T13:19:39;93982.63;;;0.95;52.69
7335;BME280;3708;42.632;23.378;2023-01-30T13:22:15;93962.75;;;1.01;52.85
7335;BME280;3708;42.632;23.378;2023-01-30T13:24:59;93974.22;;;1.23;52.84
7335;BME280;3708;42.632;23.378;2023-01-30T13:27:33;93962.41;;;1.12;52.93
7335;BME280;3708;42.632;23.378;2023-01-30T13:30:05;93950.66;;;1.40;53.76
7335;BME280;3708;42.632;23.378;2023-01-30T13:32:38;93972.00;;;1.07;52.79
7335;BME280;3708;42.632;23.378;2023-01-30T13:35:14;93943.94;;;1.73;52.61
7335;BME280;3708;42.632;23.378;2023-01-30T13:37:45;93973.31;;;1.48;52.07
7335;BME280;3708;42.632;23.378;2023-01-30T13:40:18;93947.88;;;1.65;51.74
7335;BME280;3708;42.632;23.378;2023-01-30T13:42:48;93961.25;;;1.72;51.23
7335;BME280;3708;42.632;23.378;2023-01-30T13:45:19;93950.00;;;1.58;51.70
7335;BME280;3708;42.632;23.378;2023-01-30T13:47:53;93939.13;;;2.18;51.74